createdAt,value
2018-05-13T00:00:22.537Z,78.02
2018-05-13T00:01:22.519Z,78.21
2018-05-13T00:02:22.537Z,77.92
2018-05-13T00:03:22.552Z,78.21
2018-05-13T00:04:22.694Z,77.92
2018-05-13T00:05:22.604Z,78.11
2018-05-13T00:06:22.601Z,78.11
2018-05-13T00:07:22.609Z,78.11
2018-05-13T00:08:22.649Z,79.07
2018-05-13T00:09:22.813Z,78.98
2018-05-13T00:10:22.666Z,79.07
2018-05-13T00:11:22.666Z,79.84
2018-05-13T00:12:22.692Z,80.22
2018-05-13T00:13:22.731Z,80.13
2018-05-13T00:14:22.812Z,80.32
2018-05-13T00:15:22.740Z,80.71
2018-05-13T00:16:22.767Z,81.28
2018-05-13T00:17:22.761Z,81.57
2018-05-13T00:18:22.777Z,81.57
2018-05-13T00:19:22.936Z,81.76
2018-05-13T00:20:22.804Z,81.86
2018-05-13T00:21:22.822Z,82.63
2018-05-13T00:22:22.838Z,82.43
2018-05-13T00:23:22.871Z,82.86
2018-05-13T00:24:23.015Z,83.01
2018-05-13T00:25:23.085Z,83.34
2018-05-13T00:26:22.920Z,84.17
2018-05-13T00:27:22.935Z,83.87
2018-05-13T00:28:22.916Z,83.69
2018-05-13T00:29:23.085Z,84.26
2018-05-13T00:30:22.980Z,84.36
2018-05-13T00:31:22.974Z,84.64
2018-05-13T00:32:23.014Z,85.80
2018-05-13T00:33:23.022Z,86.18
2018-05-13T00:34:23.136Z,86.66
2018-05-13T00:35:23.051Z,86.47
2018-05-13T00:36:23.252Z,87.05
2018-05-13T00:37:23.059Z,87.43
2018-05-13T00:38:23.100Z,87.01
2018-05-13T00:39:23.189Z,87.43
2018-05-13T00:40:23.105Z,87.62
2018-05-13T00:41:23.140Z,87.92
2018-05-13T00:42:23.126Z,88.10
2018-05-13T00:43:23.142Z,89.16
2018-05-13T00:44:23.286Z,88.83
2018-05-13T00:45:23.185Z,90.22
2018-05-13T00:46:23.216Z,90.51
2018-05-13T00:47:23.203Z,90.46
2018-05-13T00:48:23.216Z,90.60
2018-05-13T00:49:23.408Z,90.80
2018-05-13T00:50:23.248Z,90.99
2018-05-13T00:51:23.287Z,90.99
2018-05-13T00:52:23.278Z,90.46
2018-05-13T00:53:23.313Z,90.60
2018-05-13T00:54:23.482Z,90.37
2018-05-13T00:55:23.320Z,90.94
2018-05-13T00:56:23.335Z,90.75
2018-05-13T00:57:23.356Z,90.37
2018-05-13T00:58:23.367Z,90.94
2018-05-13T00:59:23.529Z,90.41
2018-05-13T01:00:23.417Z,90.41
2018-05-13T01:01:23.404Z,90.12
2018-05-13T01:02:23.422Z,90.46
2018-05-13T01:03:23.442Z,90.08
2018-05-13T01:04:23.475Z,90.17
2018-05-13T01:05:23.614Z,90.66
2018-05-13T01:06:23.478Z,90.70
2018-05-13T01:07:23.526Z,90.37
2018-05-13T01:08:23.534Z,90.66
2018-05-13T01:09:23.524Z,90.80
2018-05-13T01:10:23.537Z,90.41
2018-05-13T01:11:23.701Z,90.60
2018-05-13T01:12:23.593Z,90.60
2018-05-13T01:13:23.610Z,90.80
2018-05-13T01:14:23.624Z,90.80
2018-05-13T01:15:23.637Z,90.70
2018-05-13T01:16:23.782Z,90.99
2018-05-13T01:17:23.639Z,90.80
2018-05-13T01:18:23.677Z,90.41
2018-05-13T01:19:23.670Z,90.12
2018-05-13T01:20:23.713Z,90.03
2018-05-13T01:21:23.827Z,90.03
2018-05-13T01:22:23.741Z,89.50
2018-05-13T01:23:23.756Z,90.12
2018-05-13T01:24:23.748Z,90.41
2018-05-13T01:25:23.751Z,89.74
2018-05-13T01:26:23.929Z,90.22
2018-05-13T01:27:23.784Z,90.51
2018-05-13T01:28:23.803Z,90.51
2018-05-13T01:29:23.819Z,90.99
2018-05-13T01:30:23.859Z,90.84
2018-05-13T01:31:23.945Z,90.75
2018-05-13T01:32:23.867Z,91.90
2018-05-13T01:33:23.883Z,91.81
2018-05-13T01:34:23.890Z,92.29
2018-05-13T01:35:23.901Z,92.67
2018-05-13T01:36:24.011Z,92.67
2018-05-13T01:37:23.962Z,93.05
2018-05-13T01:38:23.977Z,93.05
2018-05-13T01:39:23.959Z,93.44
2018-05-13T01:40:24.001Z,93.01
2018-05-13T01:41:24.117Z,93.77
2018-05-13T01:42:24.032Z,92.91
2018-05-13T01:43:24.022Z,92.91
2018-05-13T01:44:24.058Z,92.72
2018-05-13T01:45:24.058Z,92.72
2018-05-13T01:46:24.216Z,93.01
2018-05-13T01:47:24.089Z,92.72
2018-05-13T01:48:24.100Z,93.10
2018-05-13T01:49:24.115Z,92.91
2018-05-13T01:50:24.121Z,92.05
2018-05-13T01:51:24.282Z,91.66
2018-05-13T01:52:24.179Z,92.05
2018-05-13T01:53:24.165Z,91.18
2018-05-13T01:54:24.179Z,90.89
2018-05-13T01:55:24.201Z,90.60
2018-05-13T01:56:24.338Z,90.70
2018-05-13T01:57:24.248Z,90.31
2018-05-13T01:58:24.243Z,89.93
2018-05-13T01:59:24.268Z,89.93
2018-05-13T02:00:24.279Z,89.54
2018-05-13T02:01:24.382Z,89.74
2018-05-13T02:02:24.324Z,89.16
2018-05-13T02:03:24.345Z,89.45
2018-05-13T02:04:24.355Z,89.74
2018-05-13T02:05:24.348Z,89.36
2018-05-13T02:06:24.458Z,89.26
2018-05-13T02:07:24.399Z,88.68
2018-05-13T02:08:24.394Z,89.07
2018-05-13T02:09:24.398Z,90.03
2018-05-13T02:10:24.413Z,89.83
2018-05-13T02:11:24.576Z,90.60
2018-05-13T02:12:24.451Z,90.70
2018-05-13T02:13:24.457Z,90.60
2018-05-13T02:14:24.471Z,90.89
2018-05-13T02:15:24.489Z,90.41
2018-05-13T02:16:24.505Z,90.03
2018-05-13T02:17:24.611Z,89.74
2018-05-13T02:18:24.560Z,89.45
2018-05-13T02:19:24.549Z,90.03
2018-05-13T02:20:24.562Z,90.60
2018-05-13T02:21:24.606Z,90.22
2018-05-13T02:22:24.723Z,90.60
2018-05-13T02:23:24.624Z,90.70
2018-05-13T02:24:24.617Z,90.89
2018-05-13T02:25:24.646Z,90.99
2018-05-13T02:26:24.674Z,91.47
2018-05-13T02:27:24.767Z,91.28
2018-05-13T02:28:24.681Z,90.99
2018-05-13T02:29:24.696Z,90.80
2018-05-13T02:30:24.703Z,90.70
2018-05-13T02:31:25.178Z,89.93
2018-05-13T02:32:25.458Z,90.31
2018-05-13T02:33:24.746Z,88.87
2018-05-13T02:34:24.788Z,88.78
2018-05-13T02:35:25.321Z,89.16
2018-05-13T02:36:24.800Z,88.78
2018-05-13T02:37:24.989Z,88.87
2018-05-13T02:38:24.850Z,88.10
2018-05-13T02:39:24.842Z,88.01
2018-05-13T02:40:24.883Z,88.06
2018-05-13T02:41:24.895Z,87.34
2018-05-13T02:42:24.992Z,87.62
2018-05-13T02:43:24.929Z,87.82
2018-05-13T02:44:24.951Z,88.01
2018-05-13T02:45:24.957Z,88.10
2018-05-13T02:46:24.944Z,88.10
2018-05-13T02:47:25.058Z,88.39
2018-05-13T02:48:25.001Z,88.30
2018-05-13T02:49:24.992Z,89.74
2018-05-13T02:50:25.004Z,90.41
2018-05-13T02:51:25.033Z,90.60
2018-05-13T02:52:25.135Z,90.89
2018-05-13T02:53:25.078Z,90.60
2018-05-13T02:54:25.060Z,90.89
2018-05-13T02:55:25.074Z,91.18
2018-05-13T02:56:25.105Z,91.08
2018-05-13T02:57:25.255Z,90.70
2018-05-13T02:58:25.144Z,90.99
2018-05-13T02:59:25.162Z,90.99
2018-05-13T03:00:25.161Z,91.18
2018-05-13T03:01:25.164Z,91.37
2018-05-13T03:02:25.331Z,91.47
2018-05-13T03:03:25.224Z,91.66
2018-05-13T03:04:25.211Z,91.37
2018-05-13T03:05:25.222Z,91.37
2018-05-13T03:06:25.249Z,91.85
2018-05-13T03:07:25.377Z,91.66
2018-05-13T03:08:25.266Z,91.56
2018-05-13T03:09:25.305Z,91.85
2018-05-13T03:10:25.306Z,92.14
2018-05-13T03:11:25.309Z,92.05
2018-05-13T03:12:25.451Z,92.43
2018-05-13T03:13:25.370Z,92.91
2018-05-13T03:14:25.407Z,92.43
2018-05-13T03:15:25.397Z,92.81
2018-05-13T03:16:25.379Z,93.01
2018-05-13T03:17:25.508Z,93.39
2018-05-13T03:18:25.437Z,93.10
2018-05-13T03:19:25.641Z,93.19
2018-05-13T03:20:25.445Z,92.91
2018-05-13T03:21:25.456Z,92.91
2018-05-13T03:22:25.470Z,93.01
2018-05-13T03:23:25.591Z,92.43
2018-05-13T03:24:25.525Z,91.95
2018-05-13T03:25:25.539Z,91.85
2018-05-13T03:26:25.528Z,91.75
2018-05-13T03:27:25.540Z,92.43
2018-05-13T03:28:25.735Z,93.49
2018-05-13T03:29:25.584Z,93.87
2018-05-13T03:30:25.612Z,94.45
2018-05-13T03:31:25.613Z,95.17
2018-05-13T03:32:25.616Z,94.78
2018-05-13T03:33:25.731Z,95.12
2018-05-13T03:34:25.640Z,96.13
2018-05-13T03:35:25.660Z,96.56
2018-05-13T03:36:25.683Z,97.71
2018-05-13T03:37:25.713Z,97.19
2018-05-13T03:38:25.833Z,97.66
2018-05-13T03:39:25.723Z,98.05
2018-05-13T03:40:25.762Z,97.86
2018-05-13T03:41:25.750Z,98.14
2018-05-13T03:42:25.789Z,98.24
2018-05-13T03:43:25.951Z,97.66
2018-05-13T03:44:25.815Z,98.14
2018-05-13T03:45:25.829Z,97.96
2018-05-13T03:46:25.817Z,98.34
2018-05-13T03:47:25.832Z,98.82
2018-05-13T03:48:25.996Z,99.20
2018-05-13T03:49:25.858Z,99.30
2018-05-13T03:50:25.884Z,99.87
2018-05-13T03:51:25.899Z,99.78
2018-05-13T03:52:25.930Z,99.87
2018-05-13T03:53:26.021Z,99.97
2018-05-13T03:54:25.950Z,99.78
2018-05-13T03:55:25.949Z,98.91
2018-05-13T03:56:25.965Z,98.24
2018-05-13T03:57:25.975Z,98.63
2018-05-13T03:58:26.116Z,99.68
2018-05-13T03:59:26.030Z,99.99
2018-05-13T04:00:26.048Z,99.99
2018-05-13T04:01:26.049Z,99.99
2018-05-13T04:02:26.047Z,99.99
2018-05-13T04:03:26.210Z,99.99
2018-05-13T04:04:26.105Z,99.99
2018-05-13T04:05:26.114Z,99.99
2018-05-13T04:06:26.120Z,99.99
2018-05-13T04:07:26.244Z,99.99
2018-05-13T04:08:26.283Z,99.99
2018-05-13T04:09:26.148Z,99.99
2018-05-13T04:10:26.171Z,99.99
2018-05-13T04:11:26.174Z,99.99
2018-05-13T04:12:26.190Z,99.99
2018-05-13T04:13:26.352Z,99.99
2018-05-13T04:14:26.246Z,99.99
2018-05-13T04:15:26.230Z,99.99
2018-05-13T04:16:26.256Z,99.99
2018-05-13T04:17:26.257Z,99.99
2018-05-13T04:18:26.398Z,99.99
2018-05-13T04:19:26.312Z,99.99
2018-05-13T04:20:26.300Z,99.99
2018-05-13T04:21:26.313Z,99.99
2018-05-13T04:22:26.331Z,99.99
2018-05-13T04:23:26.440Z,99.99
2018-05-13T04:24:26.381Z,99.99
2018-05-13T04:25:26.372Z,99.99
2018-05-13T04:26:26.383Z,99.99
2018-05-13T04:27:27.210Z,99.99
2018-05-13T04:28:27.523Z,99.99
2018-05-13T04:29:27.235Z,99.99
2018-05-13T04:30:39.809Z,99.99
2018-05-13T04:31:28.498Z,99.99
2018-05-13T04:32:27.591Z,99.99
2018-05-13T04:34:27.205Z,99.99
2018-05-13T04:35:27.097Z,99.99
2018-05-13T04:36:27.868Z,99.99
2018-05-13T04:37:27.161Z,99.99
2018-05-13T04:38:27.176Z,99.99
2018-05-13T04:39:26.707Z,99.99
2018-05-13T04:40:27.175Z,99.99
2018-05-13T04:41:27.378Z,99.99
2018-05-13T04:42:26.625Z,99.99
2018-05-13T04:43:26.800Z,99.99
2018-05-13T04:44:26.846Z,99.99
2018-05-13T04:45:27.469Z,99.99
2018-05-13T04:46:27.154Z,99.99
2018-05-13T04:47:26.696Z,99.99
2018-05-13T04:48:27.186Z,99.99
2018-05-13T04:49:27.372Z,99.99
2018-05-13T04:52:26.773Z,99.99
2018-05-13T04:53:26.787Z,99.99
2018-05-13T04:54:26.901Z,99.99
2018-05-13T04:55:26.791Z,99.30
2018-05-13T04:56:26.804Z,99.30
2018-05-13T04:57:29.580Z,99.87
2018-05-13T04:59:28.933Z,99.78
2018-05-13T05:00:27.783Z,99.87
2018-05-13T05:01:27.480Z,98.82
2018-05-13T05:03:28.146Z,96.80
2018-05-13T05:04:27.675Z,95.84
2018-05-13T05:05:31.282Z,95.26
2018-05-13T05:08:04.182Z,95.07
2018-05-13T05:08:26.971Z,95.26
2018-05-13T05:11:27.621Z,93.82
2018-05-13T05:12:27.848Z,93.54
2018-05-13T05:13:28.275Z,93.82
2018-05-13T05:15:27.997Z,93.44
2018-05-13T05:16:27.629Z,93.54
2018-05-13T05:17:27.778Z,93.34
2018-05-13T05:18:27.620Z,92.67
2018-05-13T05:19:28.192Z,92.00
2018-05-13T05:20:27.665Z,92.29
2018-05-13T05:21:27.650Z,92.19
2018-05-13T05:22:27.666Z,91.81
2018-05-13T05:23:27.377Z,91.61
2018-05-13T05:24:27.804Z,91.61
2018-05-13T05:25:27.711Z,90.66
2018-05-13T05:26:27.256Z,90.56
2018-05-13T05:27:28.070Z,90.37
2018-05-13T05:29:31.319Z,89.98
2018-05-13T05:31:27.303Z,91.42
2018-05-13T05:32:29.718Z,91.33
2018-05-13T05:33:28.472Z,90.75
2018-05-13T05:35:30.996Z,90.94
2018-05-13T05:36:28.184Z,91.04
2018-05-13T05:37:31.026Z,90.37
2018-05-13T05:38:29.433Z,90.56
2018-05-13T05:40:01.235Z,90.56
2018-05-13T05:40:28.074Z,90.75
2018-05-13T05:42:28.241Z,90.75
2018-05-13T05:43:27.507Z,90.94
2018-05-13T05:44:27.506Z,91.42
2018-05-13T05:46:28.735Z,89.50
2018-05-13T05:48:27.668Z,89.69
2018-05-13T05:49:27.589Z,89.12
2018-05-13T05:50:28.621Z,88.93
2018-05-13T05:51:29.090Z,89.02
2018-05-13T05:52:27.634Z,88.83
2018-05-13T05:53:27.645Z,89.31
2018-05-13T05:54:27.660Z,89.22
2018-05-13T05:55:27.803Z,88.93
2018-05-13T05:56:27.696Z,88.83
2018-05-13T05:59:27.706Z,89.69
2018-05-13T06:00:27.879Z,89.50
2018-05-13T06:01:27.761Z,88.83
2018-05-13T06:02:27.763Z,88.73
2018-05-13T06:03:27.764Z,88.73
2018-05-13T06:04:27.810Z,88.73
2018-05-13T06:05:27.920Z,88.35
2018-05-13T06:06:27.833Z,88.35
2018-05-13T06:07:27.849Z,88.83
2018-05-13T06:08:27.841Z,89.31
2018-05-13T06:09:27.851Z,89.12
2018-05-13T06:10:27.969Z,89.02
2018-05-13T06:11:27.891Z,88.64
2018-05-13T06:12:27.907Z,88.73
2018-05-13T06:13:27.913Z,88.64
2018-05-13T06:14:27.927Z,87.87
2018-05-13T06:15:28.064Z,88.25
2018-05-13T06:16:27.964Z,88.54
2018-05-13T06:17:27.966Z,89.02
2018-05-13T06:18:27.979Z,89.69
2018-05-13T06:19:27.995Z,89.98
2018-05-13T06:20:28.159Z,90.27
2018-05-13T06:21:28.018Z,89.98
2018-05-13T06:22:28.037Z,89.98
2018-05-13T06:23:28.082Z,89.40
2018-05-13T06:24:28.064Z,89.79
2018-05-13T06:25:28.181Z,89.98
2018-05-13T06:26:28.095Z,90.66
2018-05-13T06:27:28.111Z,90.94
2018-05-13T06:28:28.149Z,91.23
2018-05-13T06:29:28.139Z,90.84
2018-05-13T06:30:28.254Z,91.42
2018-05-13T06:31:28.194Z,90.56
2018-05-13T06:32:28.195Z,90.56
2018-05-13T06:33:28.209Z,90.75
2018-05-13T06:34:28.239Z,90.70
2018-05-13T06:35:28.350Z,91.38
2018-05-13T06:36:28.243Z,91.66
2018-05-13T06:37:28.279Z,92.00
2018-05-13T06:38:28.268Z,92.33
2018-05-13T06:39:28.308Z,92.67
2018-05-13T06:40:28.463Z,92.96
2018-05-13T06:43:28.365Z,91.28
2018-05-13T06:44:28.380Z,91.66
2018-05-13T06:45:28.396Z,92.33
2018-05-13T06:47:29.204Z,91.57
2018-05-13T06:48:28.412Z,91.86
2018-05-13T06:49:41.796Z,91.66
2018-05-13T06:51:28.597Z,90.13
2018-05-13T06:52:28.481Z,89.22
2018-05-13T06:53:28.486Z,89.07
2018-05-13T06:54:28.522Z,88.31
2018-05-13T06:55:28.538Z,88.31
2018-05-13T06:56:28.656Z,88.40
2018-05-13T06:57:28.539Z,89.07
2018-05-13T06:58:28.566Z,88.59
2018-05-13T06:59:28.594Z,89.07
2018-05-13T07:00:28.612Z,89.07
2018-05-13T07:01:28.705Z,89.17
2018-05-13T07:02:29.154Z,89.26
2018-05-13T07:03:28.654Z,88.69
2018-05-13T07:04:28.640Z,88.88
2018-05-13T07:05:28.662Z,88.79
2018-05-13T07:06:28.817Z,88.79
2018-05-13T07:07:28.682Z,88.69
2018-05-13T07:08:28.697Z,88.79
2018-05-13T07:09:28.739Z,88.31
2018-05-13T07:10:28.804Z,88.11
2018-05-13T07:11:28.890Z,88.02
2018-05-13T07:12:28.783Z,88.88
2018-05-13T07:13:28.766Z,88.59
2018-05-13T07:14:28.807Z,88.88
2018-05-13T07:15:28.799Z,88.49
2018-05-13T07:16:55.192Z,88.11
2018-05-13T07:18:28.837Z,88.02
2018-05-13T07:19:28.852Z,87.73
2018-05-13T07:20:28.862Z,87.92
2018-05-13T07:21:29.045Z,87.73
2018-05-13T07:22:28.924Z,87.73
2018-05-13T07:23:28.909Z,87.05
2018-05-13T07:24:28.923Z,86.77
2018-05-13T07:25:28.937Z,86.68
2018-05-13T07:26:29.085Z,86.68
2018-05-13T07:27:28.962Z,86.72
2018-05-13T07:28:28.985Z,86.58
2018-05-13T07:29:28.997Z,86.48
2018-05-13T07:30:29.012Z,86.62
2018-05-13T07:31:29.173Z,86.62
2018-05-13T07:32:29.039Z,86.87
2018-05-13T07:33:29.050Z,85.62
2018-05-13T07:34:29.090Z,86.38
2018-05-13T07:35:29.105Z,86.58
2018-05-13T07:36:29.260Z,87.25
2018-05-13T07:37:29.108Z,87.25
2018-05-13T07:38:29.151Z,86.68
2018-05-13T07:39:29.169Z,87.05
2018-05-13T07:41:29.277Z,87.15
2018-05-13T07:42:29.203Z,87.92
2018-05-13T07:43:29.248Z,87.44
2018-05-13T07:44:29.207Z,86.10
2018-05-13T07:45:29.232Z,86.00
2018-05-13T07:46:29.411Z,86.00
2018-05-13T07:47:29.249Z,85.62
2018-05-13T07:48:29.292Z,85.42
2018-05-13T07:49:29.279Z,86.19
2018-05-13T07:50:29.293Z,86.38
2018-05-13T07:51:29.469Z,84.47
2018-05-13T07:52:29.321Z,83.03
2018-05-13T07:53:29.542Z,83.41
2018-05-13T07:54:29.353Z,83.80
2018-05-13T07:55:30.338Z,82.74
2018-05-13T07:56:29.377Z,82.54
2018-05-13T07:57:29.540Z,83.12
2018-05-13T07:58:30.008Z,82.84
2018-05-13T07:59:29.421Z,82.54
2018-05-13T08:00:29.437Z,82.35
2018-05-13T08:01:29.447Z,82.78
2018-05-13T08:02:29.628Z,83.07
2018-05-13T08:03:29.503Z,82.74
2018-05-13T08:04:29.496Z,82.54
2018-05-13T08:05:29.505Z,82.64
2018-05-13T08:06:29.545Z,82.54
2018-05-13T08:07:29.686Z,82.45
2018-05-13T08:08:29.550Z,82.68
2018-05-13T08:09:29.588Z,82.54
2018-05-13T08:10:29.576Z,82.64
2018-05-13T08:11:29.595Z,82.54
2018-05-13T08:12:29.752Z,82.54
2018-05-13T08:13:29.625Z,82.26
2018-05-13T08:14:29.647Z,82.84
2018-05-13T08:15:29.651Z,83.22
2018-05-13T08:16:29.659Z,83.41
2018-05-13T08:17:29.802Z,83.41
2018-05-13T08:18:29.700Z,83.89
2018-05-13T08:19:29.705Z,83.51
2018-05-13T08:20:29.744Z,83.12
2018-05-13T08:21:29.741Z,83.41
2018-05-13T08:22:29.872Z,83.12
2018-05-13T08:23:29.788Z,83.22
2018-05-13T08:24:29.777Z,83.51
2018-05-13T08:25:29.794Z,82.74
2018-05-13T08:26:29.813Z,82.64
2018-05-13T08:27:29.970Z,83.12
2018-05-13T08:28:29.863Z,83.70
2018-05-13T08:29:29.851Z,83.31
2018-05-13T08:30:29.887Z,83.80
2018-05-13T08:31:29.873Z,83.98
2018-05-13T08:32:30.007Z,83.89
2018-05-13T08:33:29.908Z,83.89
2018-05-13T08:34:29.944Z,83.80
2018-05-13T08:35:29.937Z,84.08
2018-05-13T08:36:29.959Z,84.08
2018-05-13T08:37:30.110Z,83.80
2018-05-13T08:38:30.000Z,83.31
2018-05-13T08:39:30.002Z,83.60
2018-05-13T08:40:30.033Z,83.98
2018-05-13T08:41:30.028Z,84.66
2018-05-13T08:42:30.195Z,84.37
2018-05-13T08:43:30.046Z,84.18
2018-05-13T08:44:30.058Z,84.18
2018-05-13T08:45:30.075Z,84.37
2018-05-13T08:46:30.114Z,83.51
2018-05-13T08:47:30.196Z,83.22
2018-05-13T08:48:30.160Z,83.89
2018-05-13T08:49:30.156Z,84.08
2018-05-13T08:50:30.170Z,84.71
2018-05-13T08:51:30.158Z,85.04
2018-05-13T08:52:30.321Z,85.28
2018-05-13T08:53:30.212Z,85.58
2018-05-13T08:54:30.209Z,86.05
2018-05-13T08:55:30.226Z,86.44
2018-05-13T08:56:30.259Z,86.25
2018-05-13T08:57:30.397Z,86.54
2018-05-13T08:58:30.264Z,87.30
2018-05-13T08:59:30.268Z,87.11
2018-05-13T09:00:30.299Z,87.88
2018-05-13T09:01:30.300Z,86.72
2018-05-13T09:02:30.343Z,87.11
2018-05-13T09:03:30.453Z,86.44
2018-05-13T09:04:30.366Z,86.54
2018-05-13T09:05:30.384Z,85.81
2018-05-13T09:06:30.373Z,86.10
2018-05-13T09:07:30.396Z,85.96
2018-05-13T09:08:30.463Z,86.00
2018-05-13T09:09:30.524Z,85.33
2018-05-13T09:10:30.533Z,85.52
2018-05-13T09:11:30.465Z,84.66
2018-05-13T09:12:30.453Z,84.56
2018-05-13T09:13:30.503Z,84.85
2018-05-13T09:14:30.805Z,85.28
2018-05-13T09:15:30.505Z,85.77
2018-05-13T09:16:30.540Z,85.96
2018-05-13T09:17:30.522Z,85.96
2018-05-13T09:18:30.536Z,86.63
2018-05-13T09:19:30.667Z,86.44
2018-05-13T09:20:30.603Z,86.54
2018-05-13T09:21:30.604Z,86.54
2018-05-13T09:22:30.632Z,86.82
2018-05-13T09:23:30.633Z,87.11
2018-05-13T09:24:30.801Z,87.30
2018-05-13T09:25:30.652Z,87.59
2018-05-13T09:26:30.718Z,86.92
2018-05-13T09:27:32.295Z,86.63
2018-05-13T09:28:31.555Z,86.82
2018-05-13T09:29:30.844Z,86.72
2018-05-13T09:30:31.324Z,86.34
2018-05-13T09:31:31.491Z,85.96
2018-05-13T09:33:30.746Z,85.28
2018-05-13T09:34:30.870Z,85.38
2018-05-13T09:35:30.800Z,85.28
2018-05-13T09:38:32.228Z,85.86
2018-05-13T09:39:31.053Z,85.86
2018-05-13T09:40:30.842Z,85.86
2018-05-13T09:41:30.884Z,85.38
2018-05-13T09:42:30.902Z,85.48
2018-05-13T09:43:30.911Z,86.05
2018-05-13T09:44:31.109Z,85.67
2018-05-13T09:46:31.766Z,85.96
2018-05-13T09:47:30.954Z,85.77
2018-05-13T09:48:30.965Z,86.54
2018-05-13T09:49:31.095Z,87.21
2018-05-13T09:50:31.010Z,87.01
2018-05-13T09:51:30.997Z,87.59
2018-05-13T09:52:31.021Z,86.72
2018-05-13T09:53:31.051Z,86.92
2018-05-13T09:54:31.135Z,86.44
2018-05-13T09:55:31.862Z,85.96
2018-05-13T09:56:50.873Z,85.48
2018-05-13T09:57:31.150Z,85.19
2018-05-13T09:58:31.096Z,82.79
2018-05-13T09:59:33.304Z,81.26
2018-05-13T10:00:31.150Z,79.82
2018-05-13T10:01:31.137Z,79.34
2018-05-13T10:05:33.631Z,75.79
2018-05-13T10:06:31.234Z,74.06
2018-05-13T10:07:31.249Z,73.97
2018-05-13T10:08:35.181Z,73.58
2018-05-13T10:09:32.404Z,73.58
2018-05-13T10:10:31.262Z,73.00
2018-05-13T10:11:32.172Z,73.49
2018-05-13T10:13:31.314Z,73.97
2018-05-13T10:14:31.346Z,73.97
2018-05-13T10:15:31.459Z,73.97
2018-05-13T10:16:31.346Z,74.83
2018-05-13T10:17:31.387Z,75.50
2018-05-13T10:18:31.389Z,75.60
2018-05-13T10:19:31.430Z,75.70
2018-05-13T10:20:31.554Z,76.75
2018-05-13T10:21:31.446Z,77.71
2018-05-13T10:22:31.431Z,77.80
2018-05-13T10:23:31.476Z,78.77
2018-05-13T10:24:31.460Z,77.51
2018-05-13T10:25:31.623Z,77.51
2018-05-13T10:26:31.487Z,78.09
2018-05-13T10:27:31.503Z,78.57
2018-05-13T10:28:31.517Z,79.05
2018-05-13T10:29:31.529Z,79.44
2018-05-13T10:30:31.719Z,79.91
2018-05-13T10:31:31.558Z,79.72
2018-05-13T10:32:31.572Z,79.63
2018-05-13T10:33:31.587Z,79.24
2018-05-13T10:34:31.614Z,78.77
2018-05-13T10:35:33.027Z,77.90
2018-05-13T10:36:31.642Z,78.19
2018-05-13T10:37:31.659Z,78.80
2018-05-13T10:40:31.814Z,77.08
2018-05-13T10:42:31.796Z,77.56
2018-05-13T10:44:31.744Z,77.84
2018-05-13T10:45:33.208Z,77.94
2018-05-13T10:46:32.578Z,78.13
2018-05-13T10:47:31.795Z,78.70
2018-05-13T10:48:31.815Z,78.90
2018-05-13T10:49:33.061Z,77.94
2018-05-13T10:50:32.534Z,77.84
2018-05-13T10:52:32.463Z,76.88
2018-05-13T10:53:32.693Z,76.02
2018-05-13T10:54:31.887Z,76.21
2018-05-13T10:55:33.083Z,76.21
2018-05-13T10:56:39.080Z,75.92
2018-05-13T10:57:31.934Z,76.02
2018-05-13T10:58:31.949Z,75.92
2018-05-13T10:59:31.977Z,75.54
2018-05-13T11:01:32.868Z,74.58
2018-05-13T11:02:34.026Z,74.23
2018-05-13T11:03:32.019Z,73.94
2018-05-13T11:04:35.671Z,73.27
2018-05-13T11:05:32.146Z,74.13
2018-05-13T11:06:32.670Z,73.85
2018-05-13T11:07:35.716Z,73.56
2018-05-13T11:08:33.302Z,74.23
2018-05-13T11:10:32.247Z,73.46
2018-05-13T11:11:32.140Z,73.94
2018-05-13T11:12:35.197Z,74.04
2018-05-13T11:13:32.167Z,72.69
2018-05-13T11:14:32.211Z,72.50
2018-05-13T11:15:32.339Z,72.79
2018-05-13T11:17:32.222Z,72.79
2018-05-13T11:18:32.267Z,74.81
2018-05-13T11:19:32.264Z,73.66
2018-05-13T11:21:32.286Z,73.94
2018-05-13T11:22:32.330Z,73.66
2018-05-13T11:23:32.328Z,73.94
2018-05-13T11:24:33.220Z,73.18
2018-05-13T11:25:32.348Z,73.18
2018-05-13T11:26:32.487Z,73.08
2018-05-13T11:27:32.393Z,72.02
2018-05-13T11:28:32.417Z,71.93
2018-05-13T11:29:32.417Z,72.41
2018-05-13T11:30:32.418Z,71.83
2018-05-13T11:31:32.536Z,72.31
2018-05-13T11:32:32.451Z,72.69
2018-05-13T11:33:32.491Z,72.50
2018-05-13T11:34:32.507Z,71.93
2018-05-13T11:35:32.496Z,72.02
2018-05-13T11:36:32.612Z,73.08
2018-05-13T11:37:32.560Z,73.46
2018-05-13T11:38:32.566Z,73.27
2018-05-13T11:39:32.560Z,73.37
2018-05-13T11:40:32.597Z,73.08
2018-05-13T11:41:34.220Z,72.79
2018-05-13T11:42:35.204Z,73.46
2018-05-13T11:43:33.293Z,72.79
2018-05-13T11:44:32.642Z,73.18
2018-05-13T11:45:32.644Z,73.18
2018-05-13T11:46:32.786Z,73.08
2018-05-13T11:47:32.672Z,72.12
2018-05-13T11:48:32.699Z,73.08
2018-05-13T11:49:32.730Z,73.66
2018-05-13T11:50:39.909Z,73.85
2018-05-13T11:51:34.051Z,72.12
2018-05-13T11:53:33.274Z,71.06
2018-05-13T11:54:32.780Z,70.23
2018-05-13T11:55:32.821Z,70.23
2018-05-13T11:56:33.054Z,70.04
2018-05-13T11:57:32.824Z,69.18
2018-05-13T11:58:32.855Z,68.98
2018-05-13T11:59:32.884Z,68.85
2018-05-13T12:00:32.864Z,68.79
2018-05-13T12:01:33.035Z,69.46
2018-05-13T12:02:32.949Z,70.72
2018-05-13T12:03:32.911Z,69.27
2018-05-13T12:04:32.930Z,69.81
2018-05-13T12:05:32.947Z,70.43
2018-05-13T12:06:33.115Z,70.90
2018-05-13T12:07:33.003Z,70.33
2018-05-13T12:08:32.993Z,69.27
2018-05-13T12:09:33.002Z,69.85
2018-05-13T12:10:33.047Z,68.98
2018-05-13T12:11:33.192Z,68.51
2018-05-13T12:12:33.053Z,69.02
2018-05-13T12:13:33.070Z,68.92
2018-05-13T12:14:33.097Z,68.89
2018-05-13T12:15:33.100Z,68.25
2018-05-13T12:16:33.240Z,67.86
2018-05-13T12:17:33.159Z,68.63
2018-05-13T12:18:33.145Z,67.38
2018-05-13T12:19:33.175Z,67.29
2018-05-13T12:20:33.203Z,66.71
2018-05-13T12:21:33.292Z,66.52
2018-05-13T12:22:33.234Z,65.37
2018-05-13T12:23:33.249Z,65.17
2018-05-13T12:24:33.237Z,64.63
2018-05-13T12:25:33.256Z,65.11
2018-05-13T12:26:33.377Z,63.95
2018-05-13T12:27:33.297Z,63.09
2018-05-13T12:28:33.309Z,62.32
2018-05-13T12:29:33.322Z,62.51
2018-05-13T12:30:33.363Z,62.51
2018-05-13T12:31:33.531Z,62.90
2018-05-13T12:32:33.372Z,63.67
2018-05-13T12:33:33.387Z,63.18
2018-05-13T12:34:33.435Z,62.51
2018-05-13T12:35:33.430Z,62.13
2018-05-13T12:36:33.623Z,62.23
2018-05-13T12:37:33.484Z,62.16
2018-05-13T12:38:35.490Z,61.19
2018-05-13T12:39:34.408Z,60.42
2018-05-13T12:40:33.519Z,60.42
2018-05-13T12:41:33.694Z,60.24
2018-05-13T12:42:34.064Z,57.28
2018-05-13T12:44:34.577Z,57.18
2018-05-13T12:45:33.584Z,56.41
2018-05-13T12:46:33.728Z,55.93
2018-05-13T12:47:33.638Z,53.23
2018-05-13T12:48:33.644Z,51.92
2018-05-13T12:49:33.657Z,49.99
2018-05-13T12:50:33.675Z,50.18
2018-05-13T12:51:33.794Z,49.32
2018-05-13T12:52:33.739Z,49.70
2018-05-13T12:53:34.512Z,50.18
2018-05-13T12:55:33.779Z,48.44
2018-05-13T12:56:33.912Z,48.35
2018-05-13T12:57:33.811Z,47.39
2018-05-13T12:58:33.945Z,45.58
2018-05-13T12:59:33.843Z,45.20
2018-05-13T13:00:33.882Z,45.39
2018-05-13T13:01:34.900Z,45.29
2018-05-13T13:02:34.496Z,45.31
2018-05-13T13:03:33.936Z,44.23
2018-05-13T13:05:36.245Z,44.81
2018-05-13T13:07:34.001Z,44.04
2018-05-13T13:09:34.706Z,43.48
2018-05-13T13:10:35.567Z,42.42
2018-05-13T13:11:47.838Z,41.17
2018-05-13T13:12:41.268Z,40.97
2018-05-13T13:13:34.095Z,40.90
2018-05-13T13:14:38.144Z,40.39
2018-05-13T13:15:35.629Z,41.57
2018-05-13T13:16:34.308Z,41.38
2018-05-13T13:17:34.173Z,40.99
2018-05-13T13:18:35.086Z,40.12
2018-05-13T13:19:34.241Z,40.12
2018-05-13T13:20:34.230Z,40.32
2018-05-13T13:21:34.256Z,39.54
2018-05-13T13:22:34.383Z,39.57
2018-05-13T13:24:34.311Z,40.03
2018-05-13T13:25:34.354Z,41.28
2018-05-13T13:26:34.375Z,40.12
2018-05-13T13:27:34.468Z,41.09
2018-05-13T13:28:34.389Z,40.70
2018-05-13T13:29:34.435Z,41.48
2018-05-13T13:30:34.518Z,41.57
2018-05-13T13:31:34.475Z,39.64
2018-05-13T13:32:34.673Z,38.41
2018-05-13T13:33:34.487Z,38.41
2018-05-13T13:34:34.510Z,38.62
2018-05-13T13:35:34.535Z,37.85
2018-05-13T13:36:34.671Z,36.98
2018-05-13T13:37:34.685Z,37.27
2018-05-13T13:39:34.617Z,38.62
2018-05-13T13:40:34.636Z,38.23